Etusivu
METAR-TAF:

METAR-TAF

Lentoasemat :

Platteville, Wisconsin, Yhdysvallat

Leveyspiiri: 42-41-22N, Pituuspiiri: 090-26-40W, korkeus merenpinnasta: 312 m

Tämänhetkinen sää

Tämä raportti tehtiin 31 minuuttia sitten, kello 11.15 UTC
Tuuli 3 kn lännestä/luoteesta
Lämpötila 12°C
Kosteus 100%
Ilmanpaine 1016 hPa
Näkyvyys: 11.3 km
selkeää

METAR: KPVB 291115Z AUTO 29003KT 7SM CLR 12/12 A2999 RMK AO1 T01200118

Aika: 06:46 (11:46 UTC)


TAF: puuttuu

Säähavainnot ja -ennusteet yli 4000 lentoasemalta (METAR- ja TAF-raportit).

Käytössä olevat sääasemat on merkitty karttaan keltaisilla ja punaisilla pisteillä.

Aseta hiiri pisteen päälle nähdäksesi sääaseman nimen.

Klikkaa sitten nähdäksesi säähavainnot ja -ennusteet.

Kartan vaihtaminen: klikkaa mustalla rastilla varustettuja vihreitä pisteitä, niin voit zoomata sisään; viivalla varustettua vihreää pistettä, niin voit zoomata ulos tai vihreitä nuolia, niin pääset viereisille kartoille.


METAR-TAF: